sensor_id;sensor_type;location;lat;lon;timestamp;pressure;altitude;pressure_sealevel;temperature;humidity
33949;BME280;20229;49.856;19.030;2023-05-14T00:01:45;102007.13;;;9.30;72.08
33949;BME280;20229;49.856;19.030;2023-05-14T00:06:59;102017.88;;;9.35;72.71
33949;BME280;20229;49.856;19.030;2023-05-14T00:12:13;102020.51;;;9.38;72.08
33949;BME280;20229;49.856;19.030;2023-05-14T00:17:27;102022.28;;;9.39;73.01
33949;BME280;20229;49.856;19.030;2023-05-14T00:22:41;102014.08;;;9.41;72.10
33949;BME280;20229;49.856;19.030;2023-05-14T00:27:55;102014.02;;;9.42;72.17
33949;BME280;20229;49.856;19.030;2023-05-14T00:33:09;102016.89;;;9.38;72.14
33949;BME280;20229;49.856;19.030;2023-05-14T00:38:23;102019.00;;;9.28;73.47
33949;BME280;20229;49.856;19.030;2023-05-14T00:43:40;102024.82;;;9.16;73.95
33949;BME280;20229;49.856;19.030;2023-05-14T00:48:56;102018.69;;;9.07;73.37
33949;BME280;20229;49.856;19.030;2023-05-14T00:54:10;102014.35;;;9.00;73.87
33949;BME280;20229;49.856;19.030;2023-05-14T00:59:24;102020.01;;;8.94;73.96
33949;BME280;20229;49.856;19.030;2023-05-14T01:04:39;102029.29;;;8.87;74.98
33949;BME280;20229;49.856;19.030;2023-05-14T01:10:05;102031.23;;;8.82;74.64
33949;BME280;20229;49.856;19.030;2023-05-14T01:15:24;102028.59;;;8.79;75.20
33949;BME280;20229;49.856;19.030;2023-05-14T01:20:39;102023.84;;;8.87;74.80
33949;BME280;20229;49.856;19.030;2023-05-14T01:25:53;102029.06;;;8.95;75.05
33949;BME280;20229;49.856;19.030;2023-05-14T01:31:13;102025.25;;;9.00;75.11
33949;BME280;20229;49.856;19.030;2023-05-14T01:36:29;102016.05;;;9.04;75.04
33949;BME280;20229;49.856;19.030;2023-05-14T01:41:45;102020.38;;;9.12;74.66
33949;BME280;20229;49.856;19.030;2023-05-14T01:46:59;102018.18;;;9.26;74.46
33949;BME280;20229;49.856;19.030;2023-05-14T01:52:15;102011.45;;;9.38;74.21
33949;BME280;20229;49.856;19.030;2023-05-14T01:57:33;102001.33;;;9.41;74.27
33949;BME280;20229;49.856;19.030;2023-05-14T02:02:47;101999.55;;;9.40;74.01
33949;BME280;20229;49.856;19.030;2023-05-14T02:08:01;101994.30;;;9.34;74.05
33949;BME280;20229;49.856;19.030;2023-05-14T02:13:15;101992.70;;;9.27;74.53
33949;BME280;20229;49.856;19.030;2023-05-14T02:18:30;101983.90;;;9.17;74.73
33949;BME280;20229;49.856;19.030;2023-05-14T02:23:44;101982.36;;;9.08;75.95
33949;BME280;20229;49.856;19.030;2023-05-14T02:28:57;101975.50;;;8.94;76.50
33949;BME280;20229;49.856;19.030;2023-05-14T02:34:11;101966.82;;;8.81;76.88
33949;BME280;20229;49.856;19.030;2023-05-14T02:39:25;101975.39;;;8.67;77.48
33949;BME280;20229;49.856;19.030;2023-05-14T02:44:39;101972.00;;;8.59;77.74
33949;BME280;20229;49.856;19.030;2023-05-14T02:49:53;101971.36;;;8.49;77.62
33949;BME280;20229;49.856;19.030;2023-05-14T02:55:09;101972.59;;;8.37;78.12
33949;BME280;20229;49.856;19.030;2023-05-14T03:00:24;101980.90;;;8.30;79.03
33949;BME280;20229;49.856;19.030;2023-05-14T03:05:38;101973.84;;;8.23;79.44
33949;BME280;20229;49.856;19.030;2023-05-14T03:10:53;101975.95;;;8.11;79.28
33949;BME280;20229;49.856;19.030;2023-05-14T03:16:07;101967.03;;;8.06;79.80
33949;BME280;20229;49.856;19.030;2023-05-14T03:21:21;101962.61;;;8.02;80.33
33949;BME280;20229;49.856;19.030;2023-05-14T03:26:34;101959.08;;;7.99;80.47
33949;BME280;20229;49.856;19.030;2023-05-14T03:31:50;101949.16;;;7.96;80.75
33949;BME280;20229;49.856;19.030;2023-05-14T03:37:05;101959.08;;;7.99;80.61
33949;BME280;20229;49.856;19.030;2023-05-14T03:42:19;101960.87;;;7.98;80.86
33949;BME280;20229;49.856;19.030;2023-05-14T03:47:33;101959.97;;;7.99;80.82
33949;BME280;20229;49.856;19.030;2023-05-14T03:52:47;101954.55;;;7.98;81.42
33949;BME280;20229;49.856;19.030;2023-05-14T03:58:02;101957.27;;;7.98;81.78
33949;BME280;20229;49.856;19.030;2023-05-14T04:03:17;101956.38;;;7.97;81.63
33949;BME280;20229;49.856;19.030;2023-05-14T04:08:32;101958.82;;;8.08;82.14
33949;BME280;20229;49.856;19.030;2023-05-14T04:13:46;101955.00;;;8.15;82.00
33949;BME280;20229;49.856;19.030;2023-05-14T04:19:01;101963.83;;;8.25;82.69
33949;BME280;20229;49.856;19.030;2023-05-14T04:24:17;101967.15;;;8.37;82.51
33949;BME280;20229;49.856;19.030;2023-05-14T04:29:31;101971.20;;;8.55;81.89
33949;BME280;20229;49.856;19.030;2023-05-14T04:34:45;101963.44;;;8.73;81.85
33949;BME280;20229;49.856;19.030;2023-05-14T04:39:59;101960.12;;;8.93;82.25
33949;BME280;20229;49.856;19.030;2023-05-14T04:45:14;101968.44;;;9.18;81.45
33949;BME280;20229;49.856;19.030;2023-05-14T04:50:29;101955.64;;;9.49;79.23
33949;BME280;20229;49.856;19.030;2023-05-14T04:55:43;101959.91;;;9.86;78.24
33949;BME280;20229;49.856;19.030;2023-05-14T05:00:59;101962.42;;;10.19;76.58
33949;BME280;20229;49.856;19.030;2023-05-14T05:06:14;101962.16;;;10.53;75.03
33949;BME280;20229;49.856;19.030;2023-05-14T05:11:28;101948.59;;;10.98;74.25
33949;BME280;20229;49.856;19.030;2023-05-14T05:16:42;101932.80;;;12.79;72.22
33949;BME280;20229;49.856;19.030;2023-05-14T05:21:57;101929.81;;;15.96;63.52
33949;BME280;20229;49.856;19.030;2023-05-14T05:27:11;101931.25;;;17.91;56.34
33949;BME280;20229;49.856;19.030;2023-05-14T05:32:25;101929.51;;;19.57;50.44
33949;BME280;20229;49.856;19.030;2023-05-14T05:37:38;101903.84;;;22.51;44.95
33949;BME280;20229;49.856;19.030;2023-05-14T05:42:53;101901.53;;;25.04;39.31
33949;BME280;20229;49.856;19.030;2023-05-14T05:48:07;101894.63;;;27.25;34.98
33949;BME280;20229;49.856;19.030;2023-05-14T05:53:22;101886.17;;;29.08;32.09
33949;BME280;20229;49.856;19.030;2023-05-14T05:58:37;101888.52;;;29.43;32.20
33949;BME280;20229;49.856;19.030;2023-05-14T06:03:52;101893.69;;;30.33;32.69
33949;BME280;20229;49.856;19.030;2023-05-14T06:09:05;101883.11;;;30.96;30.25
33949;BME280;20229;49.856;19.030;2023-05-14T06:14:21;101875.23;;;31.65;28.31
33949;BME280;20229;49.856;19.030;2023-05-14T06:19:35;101875.43;;;31.64;27.72
33949;BME280;20229;49.856;19.030;2023-05-14T06:24:49;101879.39;;;31.84;27.29
33949;BME280;20229;49.856;19.030;2023-05-14T06:30:04;101871.97;;;31.83;27.08
33949;BME280;20229;49.856;19.030;2023-05-14T06:35:19;101867.86;;;32.87;25.57
33949;BME280;20229;49.856;19.030;2023-05-14T06:40:33;101883.63;;;33.65;26.34
33949;BME280;20229;49.856;19.030;2023-05-14T06:45:50;101889.96;;;34.29;26.00
33949;BME280;20229;49.856;19.030;2023-05-14T06:51:04;101876.33;;;35.77;24.07
33949;BME280;20229;49.856;19.030;2023-05-14T06:56:19;101880.30;;;36.46;23.23
33949;BME280;20229;49.856;19.030;2023-05-14T07:01:34;101879.77;;;37.12;21.92
33949;BME280;20229;49.856;19.030;2023-05-14T07:06:48;101887.41;;;37.55;21.44
33949;BME280;20229;49.856;19.030;2023-05-14T07:12:03;101883.98;;;38.01;21.91
33949;BME280;20229;49.856;19.030;2023-05-14T07:17:17;101880.65;;;39.59;20.13
33949;BME280;20229;49.856;19.030;2023-05-14T07:22:31;101851.71;;;40.87;18.92
33949;BME280;20229;49.856;19.030;2023-05-14T07:27:44;101852.45;;;41.76;17.48
33949;BME280;20229;49.856;19.030;2023-05-14T07:32:58;101843.41;;;42.12;18.13
33949;BME280;20229;49.856;19.030;2023-05-14T07:38:12;101831.90;;;41.41;17.20
33949;BME280;20229;49.856;19.030;2023-05-14T07:43:26;101822.22;;;41.03;17.29
33949;BME280;20229;49.856;19.030;2023-05-14T07:48:40;101817.73;;;41.51;16.77
33949;BME280;20229;49.856;19.030;2023-05-14T07:53:54;101808.73;;;41.86;17.86
33949;BME280;20229;49.856;19.030;2023-05-14T07:59:08;101793.02;;;41.06;17.76
33949;BME280;20229;49.856;19.030;2023-05-14T08:04:22;101779.50;;;40.84;18.37
33949;BME280;20229;49.856;19.030;2023-05-14T08:09:36;101777.13;;;40.98;17.88
33949;BME280;20229;49.856;19.030;2023-05-14T08:14:50;101778.98;;;41.26;18.09
33949;BME280;20229;49.856;19.030;2023-05-14T08:20:05;101777.77;;;41.66;18.72
33949;BME280;20229;49.856;19.030;2023-05-14T08:25:19;101764.89;;;40.64;19.09
33949;BME280;20229;49.856;19.030;2023-05-14T08:30:33;101763.91;;;37.13;22.25
33949;BME280;20229;49.856;19.030;2023-05-14T08:35:49;101766.54;;;34.66;23.20
33949;BME280;20229;49.856;19.030;2023-05-14T08:41:04;101757.24;;;32.75;24.02
33949;BME280;20229;49.856;19.030;2023-05-14T08:46:22;101760.02;;;31.76;25.06
33949;BME280;20229;49.856;19.030;2023-05-14T08:51:37;101763.78;;;31.10;25.99
33949;BME280;20229;49.856;19.030;2023-05-14T08:56:51;101748.18;;;30.40;28.21
33949;BME280;20229;49.856;19.030;2023-05-14T09:02:07;101744.91;;;29.68;28.41
33949;BME280;20229;49.856;19.030;2023-05-14T09:07:22;101745.88;;;29.21;29.01
33949;BME280;20229;49.856;19.030;2023-05-14T09:12:37;101762.01;;;28.79;29.08
33949;BME280;20229;49.856;19.030;2023-05-14T09:17:51;101756.16;;;28.17;30.06
33949;BME280;20229;49.856;19.030;2023-05-14T09:23:05;101745.80;;;28.01;30.78
33949;BME280;20229;49.856;19.030;2023-05-14T09:28:21;101748.44;;;27.78;30.50
33949;BME280;20229;49.856;19.030;2023-05-14T09:34:46;101750.81;;;27.06;32.11
33949;BME280;20229;49.856;19.030;2023-05-14T09:40:12;101736.20;;;26.52;33.57
33949;BME280;20229;49.856;19.030;2023-05-14T09:45:28;101738.80;;;26.28;33.59
33949;BME280;20229;49.856;19.030;2023-05-14T09:50:42;101722.24;;;26.08;35.04
33949;BME280;20229;49.856;19.030;2023-05-14T09:55:57;101720.69;;;26.14;34.42
33949;BME280;20229;49.856;19.030;2023-05-14T10:01:11;101713.66;;;25.84;35.57
33949;BME280;20229;49.856;19.030;2023-05-14T10:06:32;101694.38;;;25.63;35.82
33949;BME280;20229;49.856;19.030;2023-05-14T10:11:52;101704.77;;;25.35;35.18
33949;BME280;20229;49.856;19.030;2023-05-14T10:17:11;101690.30;;;25.21;36.64
33949;BME280;20229;49.856;19.030;2023-05-14T10:22:32;101684.71;;;24.66;37.40
33949;BME280;20229;49.856;19.030;2023-05-14T10:27:47;101670.35;;;24.61;38.41
33949;BME280;20229;49.856;19.030;2023-05-14T10:33:06;101667.95;;;24.94;38.26
33949;BME280;20229;49.856;19.030;2023-05-14T10:38:25;101656.48;;;24.69;37.72
33949;BME280;20229;49.856;19.030;2023-05-14T10:43:40;101654.86;;;24.49;37.02
33949;BME280;20229;49.856;19.030;2023-05-14T10:48:55;101664.41;;;24.37;37.30
33949;BME280;20229;49.856;19.030;2023-05-14T10:54:11;101649.80;;;24.15;37.43
33949;BME280;20229;49.856;19.030;2023-05-14T10:59:27;101640.54;;;24.24;39.09
33949;BME280;20229;49.856;19.030;2023-05-14T11:04:41;101641.34;;;24.44;37.30
33949;BME280;20229;49.856;19.030;2023-05-14T11:10:05;101632.14;;;24.62;38.77
33949;BME280;20229;49.856;19.030;2023-05-14T11:15:24;101631.88;;;24.55;36.73
33949;BME280;20229;49.856;19.030;2023-05-14T11:20:41;101628.52;;;24.51;38.54
33949;BME280;20229;49.856;19.030;2023-05-14T11:25:55;101631.27;;;24.61;37.17
33949;BME280;20229;49.856;19.030;2023-05-14T11:31:09;101620.66;;;24.65;38.16
33949;BME280;20229;49.856;19.030;2023-05-14T11:36:23;101615.34;;;24.71;38.23
33949;BME280;20229;49.856;19.030;2023-05-14T11:41:44;101603.14;;;24.45;36.60
33949;BME280;20229;49.856;19.030;2023-05-14T11:46:58;101602.84;;;24.38;37.95
33949;BME280;20229;49.856;19.030;2023-05-14T11:52:15;101592.02;;;24.35;35.06
33949;BME280;20229;49.856;19.030;2023-05-14T11:57:31;101589.91;;;24.47;36.44
33949;BME280;20229;49.856;19.030;2023-05-14T12:02:47;101579.80;;;24.46;37.38
33949;BME280;20229;49.856;19.030;2023-05-14T12:08:02;101555.00;;;24.33;37.43
33949;BME280;20229;49.856;19.030;2023-05-14T12:13:15;101562.71;;;24.21;36.64
33949;BME280;20229;49.856;19.030;2023-05-14T12:18:31;101556.43;;;24.09;37.16
33949;BME280;20229;49.856;19.030;2023-05-14T12:23:45;101543.40;;;24.10;38.40
33949;BME280;20229;49.856;19.030;2023-05-14T12:29:01;101537.44;;;24.23;37.89
33949;BME280;20229;49.856;19.030;2023-05-14T12:34:16;101521.68;;;24.31;36.90
33949;BME280;20229;49.856;19.030;2023-05-14T12:39:32;101511.97;;;24.08;38.51
33949;BME280;20229;49.856;19.030;2023-05-14T12:44:46;101510.87;;;23.91;36.85
33949;BME280;20229;49.856;19.030;2023-05-14T12:50:00;101515.34;;;23.74;36.63
33949;BME280;20229;49.856;19.030;2023-05-14T12:55:14;101505.70;;;23.69;37.05
33949;BME280;20229;49.856;19.030;2023-05-14T13:00:28;101505.58;;;23.51;38.06
33949;BME280;20229;49.856;19.030;2023-05-14T13:05:42;101502.88;;;23.22;39.51
33949;BME280;20229;49.856;19.030;2023-05-14T13:10:56;101488.52;;;22.87;38.51
33949;BME280;20229;49.856;19.030;2023-05-14T13:16:09;101464.77;;;22.64;40.12
33949;BME280;20229;49.856;19.030;2023-05-14T13:21:29;101471.96;;;22.57;40.61
33949;BME280;20229;49.856;19.030;2023-05-14T13:26:45;101472.83;;;22.38;40.55
33949;BME280;20229;49.856;19.030;2023-05-14T13:31:58;101470.31;;;22.25;40.46
33949;BME280;20229;49.856;19.030;2023-05-14T13:37:13;101447.14;;;22.05;41.42
33949;BME280;20229;49.856;19.030;2023-05-14T13:42:27;101431.30;;;21.96;41.75
33949;BME280;20229;49.856;19.030;2023-05-14T13:47:41;101430.43;;;21.95;41.69
33949;BME280;20229;49.856;19.030;2023-05-14T13:52:55;101413.71;;;21.86;41.37
33949;BME280;20229;49.856;19.030;2023-05-14T13:58:08;101404.07;;;21.80;41.64
33949;BME280;20229;49.856;19.030;2023-05-14T14:03:23;101391.73;;;21.73;43.89
33949;BME280;20229;49.856;19.030;2023-05-14T14:08:37;101386.49;;;21.70;43.71
33949;BME280;20229;49.856;19.030;2023-05-14T14:13:51;101374.62;;;21.68;44.18
33949;BME280;20229;49.856;19.030;2023-05-14T14:19:05;101381.48;;;21.64;45.44
33949;BME280;20229;49.856;19.030;2023-05-14T14:24:19;101370.62;;;21.51;45.50
33949;BME280;20229;49.856;19.030;2023-05-14T14:29:35;101361.52;;;21.39;44.20
33949;BME280;20229;49.856;19.030;2023-05-14T14:34:49;101361.60;;;21.28;44.04
33949;BME280;20229;49.856;19.030;2023-05-14T14:40:05;101334.23;;;21.14;43.46
33949;BME280;20229;49.856;19.030;2023-05-14T14:45:19;101323.06;;;21.04;44.30
33949;BME280;20229;49.856;19.030;2023-05-14T14:50:33;101323.34;;;21.01;45.22
33949;BME280;20229;49.856;19.030;2023-05-14T14:55:48;101320.39;;;20.93;44.31
33949;BME280;20229;49.856;19.030;2023-05-14T15:01:02;101323.27;;;20.82;44.35
33949;BME280;20229;49.856;19.030;2023-05-14T15:06:16;101327.72;;;20.73;44.89
33949;BME280;20229;49.856;19.030;2023-05-14T15:11:30;101321.66;;;20.58;45.43
33949;BME280;20229;49.856;19.030;2023-05-14T15:16:43;101312.02;;;20.41;45.16
33949;BME280;20229;49.856;19.030;2023-05-14T15:21:57;101303.31;;;20.25;45.90
33949;BME280;20229;49.856;19.030;2023-05-14T15:27:11;101312.27;;;20.17;45.53
33949;BME280;20229;49.856;19.030;2023-05-14T15:32:26;101304.11;;;20.16;45.57
33949;BME280;20229;49.856;19.030;2023-05-14T15:37:42;101300.52;;;20.04;46.16
33949;BME280;20229;49.856;19.030;2023-05-14T15:42:57;101293.87;;;19.95;46.23
33949;BME280;20229;49.856;19.030;2023-05-14T15:48:12;101283.72;;;19.85;46.23
33949;BME280;20229;49.856;19.030;2023-05-14T15:53:25;101284.53;;;19.75;46.71
33949;BME280;20229;49.856;19.030;2023-05-14T15:58:39;101276.48;;;19.72;49.32
33949;BME280;20229;49.856;19.030;2023-05-14T16:03:53;101279.00;;;19.64;53.61
33949;BME280;20229;49.856;19.030;2023-05-14T16:09:07;101280.29;;;19.49;51.10
33949;BME280;20229;49.856;19.030;2023-05-14T16:14:21;101282.95;;;19.39;52.01
33949;BME280;20229;49.856;19.030;2023-05-14T16:19:37;101276.71;;;19.26;53.52
33949;BME280;20229;49.856;19.030;2023-05-14T16:24:52;101281.52;;;19.13;53.59
33949;BME280;20229;49.856;19.030;2023-05-14T16:30:07;101293.96;;;19.07;54.02
33949;BME280;20229;49.856;19.030;2023-05-14T16:35:22;101314.84;;;19.00;58.25
33949;BME280;20229;49.856;19.030;2023-05-14T16:40:35;101323.29;;;18.87;55.86
33949;BME280;20229;49.856;19.030;2023-05-14T16:45:49;101329.55;;;18.78;56.36
33949;BME280;20229;49.856;19.030;2023-05-14T16:51:03;101323.98;;;18.67;55.91
33949;BME280;20229;49.856;19.030;2023-05-14T16:56:17;101346.20;;;18.54;55.39
33949;BME280;20229;49.856;19.030;2023-05-14T17:01:31;101352.96;;;18.38;53.70
33949;BME280;20229;49.856;19.030;2023-05-14T17:06:45;101325.96;;;18.07;49.10
33949;BME280;20229;49.856;19.030;2023-05-14T17:11:59;101305.31;;;17.88;51.40
33949;BME280;20229;49.856;19.030;2023-05-14T17:17:13;101282.97;;;17.67;51.42
33949;BME280;20229;49.856;19.030;2023-05-14T17:22:27;101269.11;;;17.56;53.00
33949;BME280;20229;49.856;19.030;2023-05-14T17:27:41;101269.26;;;17.42;53.50
33949;BME280;20229;49.856;19.030;2023-05-14T17:32:54;101250.10;;;17.28;57.06
33949;BME280;20229;49.856;19.030;2023-05-14T17:38:09;101245.77;;;17.12;58.22
33949;BME280;20229;49.856;19.030;2023-05-14T17:43:23;101249.91;;;16.94;60.30
33949;BME280;20229;49.856;19.030;2023-05-14T17:48:37;101263.84;;;16.80;61.37
33949;BME280;20229;49.856;19.030;2023-05-14T17:53:51;101269.45;;;16.65;63.13
33949;BME280;20229;49.856;19.030;2023-05-14T17:59:05;101275.18;;;16.49;65.81
33949;BME280;20229;49.856;19.030;2023-05-14T18:04:19;101296.25;;;16.38;66.56
33949;BME280;20229;49.856;19.030;2023-05-14T18:09:34;101309.78;;;16.28;67.48
33949;BME280;20229;49.856;19.030;2023-05-14T18:14:47;101307.80;;;16.17;66.35
33949;BME280;20229;49.856;19.030;2023-05-14T18:20:02;101294.89;;;16.05;64.57
33949;BME280;20229;49.856;19.030;2023-05-14T18:25:17;101292.02;;;15.94;68.10
33949;BME280;20229;49.856;19.030;2023-05-14T18:30:31;101304.20;;;15.77;68.94
33949;BME280;20229;49.856;19.030;2023-05-14T18:35:44;101295.09;;;15.62;69.59
33949;BME280;20229;49.856;19.030;2023-05-14T18:40:59;101302.08;;;15.53;70.39
33949;BME280;20229;49.856;19.030;2023-05-14T18:46:13;101304.88;;;15.39;73.91
33949;BME280;20229;49.856;19.030;2023-05-14T18:51:27;101299.43;;;15.25;73.94
33949;BME280;20229;49.856;19.030;2023-05-14T18:56:41;101306.52;;;15.15;75.61
33949;BME280;20229;49.856;19.030;2023-05-14T19:01:56;101304.27;;;15.07;75.45
33949;BME280;20229;49.856;19.030;2023-05-14T19:07:11;101327.09;;;14.95;74.02
33949;BME280;20229;49.856;19.030;2023-05-14T19:12:24;101331.23;;;14.88;74.21
33949;BME280;20229;49.856;19.030;2023-05-14T19:17:39;101333.55;;;14.79;75.33
33949;BME280;20229;49.856;19.030;2023-05-14T19:22:54;101322.95;;;14.73;74.99
33949;BME280;20229;49.856;19.030;2023-05-14T19:28:08;101318.06;;;14.64;75.20
33949;BME280;20229;49.856;19.030;2023-05-14T19:33:22;101314.13;;;14.54;75.84
33949;BME280;20229;49.856;19.030;2023-05-14T19:38:36;101307.78;;;14.38;76.86
33949;BME280;20229;49.856;19.030;2023-05-14T19:43:51;101295.02;;;14.22;77.34
33949;BME280;20229;49.856;19.030;2023-05-14T19:49:05;101282.15;;;14.08;77.85
33949;BME280;20229;49.856;19.030;2023-05-14T19:54:19;101288.12;;;14.01;78.56
33949;BME280;20229;49.856;19.030;2023-05-14T19:59:33;101272.21;;;13.92;79.80
33949;BME280;20229;49.856;19.030;2023-05-14T20:04:47;101267.20;;;13.84;79.30
33949;BME280;20229;49.856;19.030;2023-05-14T20:10:03;101253.95;;;13.76;79.01
33949;BME280;20229;49.856;19.030;2023-05-14T20:15:17;101234.33;;;13.68;79.93
33949;BME280;20229;49.856;19.030;2023-05-14T20:20:30;101223.62;;;13.63;82.22
33949;BME280;20229;49.856;19.030;2023-05-14T20:25:45;101210.20;;;13.59;82.11
33949;BME280;20229;49.856;19.030;2023-05-14T20:31:00;101199.59;;;13.53;81.74
33949;BME280;20229;49.856;19.030;2023-05-14T20:36:16;101182.54;;;13.48;82.86
33949;BME280;20229;49.856;19.030;2023-05-14T20:41:30;101166.26;;;13.45;82.13
33949;BME280;20229;49.856;19.030;2023-05-14T20:46:45;101146.48;;;13.39;82.83
33949;BME280;20229;49.856;19.030;2023-05-14T20:51:58;101139.78;;;13.29;83.72
33949;BME280;20229;49.856;19.030;2023-05-14T20:57:13;101137.30;;;13.25;84.36
33949;BME280;20229;49.856;19.030;2023-05-14T21:02:28;101129.34;;;13.20;84.91
33949;BME280;20229;49.856;19.030;2023-05-14T21:07:42;101126.59;;;13.20;85.64
33949;BME280;20229;49.856;19.030;2023-05-14T21:12:56;101124.22;;;13.14;85.85
33949;BME280;20229;49.856;19.030;2023-05-14T21:18:10;101117.09;;;13.11;86.05
33949;BME280;20229;49.856;19.030;2023-05-14T21:23:24;101119.13;;;13.08;86.46
33949;BME280;20229;49.856;19.030;2023-05-14T21:28:38;101094.53;;;13.06;86.88
33949;BME280;20229;49.856;19.030;2023-05-14T21:33:52;101088.46;;;13.01;86.84
33949;BME280;20229;49.856;19.030;2023-05-14T21:39:09;101084.85;;;13.01;87.75
33949;BME280;20229;49.856;19.030;2023-05-14T21:44:22;101076.88;;;12.96;87.55
33949;BME280;20229;49.856;19.030;2023-05-14T21:49:37;101078.67;;;12.97;87.43
33949;BME280;20229;49.856;19.030;2023-05-14T21:54:51;101074.25;;;12.95;87.89
33949;BME280;20229;49.856;19.030;2023-05-14T22:00:08;101067.01;;;12.94;87.95
33949;BME280;20229;49.856;19.030;2023-05-14T22:05:25;101051.70;;;12.89;88.75
33949;BME280;20229;49.856;19.030;2023-05-14T22:10:39;101045.53;;;12.86;89.09
33949;BME280;20229;49.856;19.030;2023-05-14T22:15:53;101040.16;;;12.84;88.81
33949;BME280;20229;49.856;19.030;2023-05-14T22:21:07;101043.08;;;12.81;89.92
33949;BME280;20229;49.856;19.030;2023-05-14T22:26:21;101055.20;;;12.77;89.64
33949;BME280;20229;49.856;19.030;2023-05-14T22:31:35;101050.52;;;12.79;89.73
33949;BME280;20229;49.856;19.030;2023-05-14T22:36:49;101039.56;;;12.79;90.33
33949;BME280;20229;49.856;19.030;2023-05-14T22:42:04;101017.73;;;12.78;89.80
33949;BME280;20229;49.856;19.030;2023-05-14T22:47:17;101002.34;;;12.75;90.13
33949;BME280;20229;49.856;19.030;2023-05-14T22:52:32;100990.70;;;12.72;91.16
33949;BME280;20229;49.856;19.030;2023-05-14T22:57:46;100991.79;;;12.69;91.46
33949;BME280;20229;49.856;19.030;2023-05-14T23:03:00;100990.00;;;12.68;91.15
33949;BME280;20229;49.856;19.030;2023-05-14T23:08:20;100974.66;;;12.65;91.92
33949;BME280;20229;49.856;19.030;2023-05-14T23:13:33;100968.30;;;12.65;91.35
33949;BME280;20229;49.856;19.030;2023-05-14T23:18:47;100953.81;;;12.63;91.85
33949;BME280;20229;49.856;19.030;2023-05-14T23:24:01;100962.90;;;12.63;92.29
33949;BME280;20229;49.856;19.030;2023-05-14T23:29:15;100961.04;;;12.64;91.88
33949;BME280;20229;49.856;19.030;2023-05-14T23:34:29;100952.05;;;12.62;92.19
33949;BME280;20229;49.856;19.030;2023-05-14T23:39:43;100932.88;;;12.62;92.41
33949;BME280;20229;49.856;19.030;2023-05-14T23:44:57;100911.23;;;12.57;93.10
33949;BME280;20229;49.856;19.030;2023-05-14T23:50:11;100914.27;;;12.53;93.23
33949;BME280;20229;49.856;19.030;2023-05-14T23:55:25;100897.84;;;12.53;92.47
